sim
Sign-in with your pilot id or email,
or register
Callsign
Passwort

Schedule Details

Flight Number: DLH1647 (1)
Departure: Gdansk Lech Walesa Airport (EPGD) at 05:05
Arrival: Munich Airport (EDDM) at 06:45
Route: Lufthansa Passenger Schedule. Enter filed route here before submitting Pirep.

Weather Information
Getting current METAR information for EPGD 211130Z 17004KT 120V220 CAVOK 20/06 Q1019
Getting current METAR information for EDDM 211150Z 04004KT 330V110 CAVOK 22/13 Q1016 NOSIG

Schedule Frequency

Route Map